sensor_id;sensor_type;location;lat;lon;timestamp;P1;durP1;ratioP1;P2;durP2;ratioP2
34645;SDS011;20857;47.808;12.482;2024-03-02T00:00:36;356.75;;;330.42;;
34645;SDS011;20857;47.808;12.482;2024-03-02T00:03:01;368.17;;;340.80;;
34645;SDS011;20857;47.808;12.482;2024-03-02T00:05:27;348.75;;;322.77;;
34645;SDS011;20857;47.808;12.482;2024-03-02T00:07:57;374.02;;;345.45;;
34645;SDS011;20857;47.808;12.482;2024-03-02T00:10:29;323.48;;;299.38;;
34645;SDS011;20857;47.808;12.482;2024-03-02T00:13:06;1560.13;;;805.42;;
34645;SDS011;20857;47.808;12.482;2024-03-02T00:18:16;272.63;;;252.82;;
34645;SDS011;20857;47.808;12.482;2024-03-02T00:20:53;304.55;;;282.33;;
34645;SDS011;20857;47.808;12.482;2024-03-02T00:23:20;309.85;;;286.85;;
34645;SDS011;20857;47.808;12.482;2024-03-02T00:25:47;350.13;;;324.30;;
34645;SDS011;20857;47.808;12.482;2024-03-02T00:28:24;336.35;;;311.67;;
34645;SDS011;20857;47.808;12.482;2024-03-02T00:30:58;324.20;;;300.05;;
34645;SDS011;20857;47.808;12.482;2024-03-02T00:33:28;310.10;;;287.17;;
34645;SDS011;20857;47.808;12.482;2024-03-02T00:35:56;335.65;;;310.45;;
34645;SDS011;20857;47.808;12.482;2024-03-02T00:38:22;352.60;;;327.45;;
34645;SDS011;20857;47.808;12.482;2024-03-02T00:40:48;356.77;;;330.48;;
34645;SDS011;20857;47.808;12.482;2024-03-02T00:45:57;234.98;;;218.10;;
34645;SDS011;20857;47.808;12.482;2024-03-02T00:48:23;234.35;;;217.35;;
34645;SDS011;20857;47.808;12.482;2024-03-02T00:50:54;242.43;;;224.52;;
34645;SDS011;20857;47.808;12.482;2024-03-02T00:53:21;256.33;;;237.18;;
34645;SDS011;20857;47.808;12.482;2024-03-02T00:55:49;294.98;;;273.23;;
34645;SDS011;20857;47.808;12.482;2024-03-02T00:58:15;319.17;;;295.73;;
34645;SDS011;20857;47.808;12.482;2024-03-02T01:00:41;258.38;;;239.13;;
34645;SDS011;20857;47.808;12.482;2024-03-02T01:03:06;1559.22;;;804.85;;
34645;SDS011;20857;47.808;12.482;2024-03-02T01:05:32;1571.13;;;815.95;;
34645;SDS011;20857;47.808;12.482;2024-03-02T01:07:59;254.25;;;235.10;;
34645;SDS011;20857;47.808;12.482;2024-03-02T01:10:24;298.27;;;276.75;;
34645;SDS011;20857;47.808;12.482;2024-03-02T01:12:51;311.73;;;289.10;;
34645;SDS011;20857;47.808;12.482;2024-03-02T01:15:16;334.08;;;309.48;;
34645;SDS011;20857;47.808;12.482;2024-03-02T01:17:42;326.33;;;302.45;;
34645;SDS011;20857;47.808;12.482;2024-03-02T01:20:08;357.38;;;330.90;;
34645;SDS011;20857;47.808;12.482;2024-03-02T01:22:34;312.38;;;289.10;;
34645;SDS011;20857;47.808;12.482;2024-03-02T01:25:00;330.27;;;306.02;;
34645;SDS011;20857;47.808;12.482;2024-03-02T01:27:26;331.40;;;306.92;;
34645;SDS011;20857;47.808;12.482;2024-03-02T01:29:53;329.48;;;305.00;;
34645;SDS011;20857;47.808;12.482;2024-03-02T01:32:26;340.83;;;315.40;;
34645;SDS011;20857;47.808;12.482;2024-03-02T01:35:06;328.60;;;304.02;;
34645;SDS011;20857;47.808;12.482;2024-03-02T01:37:32;335.25;;;311.00;;
34645;SDS011;20857;47.808;12.482;2024-03-02T01:39:58;328.13;;;304.58;;
34645;SDS011;20857;47.808;12.482;2024-03-02T01:42:24;336.13;;;311.92;;
34645;SDS011;20857;47.808;12.482;2024-03-02T01:44:49;316.42;;;293.75;;
34645;SDS011;20857;47.808;12.482;2024-03-02T01:47:15;336.65;;;312.17;;
34645;SDS011;20857;47.808;12.482;2024-03-02T01:49:41;332.13;;;308.00;;
34645;SDS011;20857;47.808;12.482;2024-03-02T01:52:07;351.65;;;326.65;;
34645;SDS011;20857;47.808;12.482;2024-03-02T01:54:32;317.17;;;293.83;;
34645;SDS011;20857;47.808;12.482;2024-03-02T01:56:58;330.40;;;306.65;;
34645;SDS011;20857;47.808;12.482;2024-03-02T01:59:24;308.35;;;285.80;;
34645;SDS011;20857;47.808;12.482;2024-03-02T02:01:50;307.50;;;285.30;;
34645;SDS011;20857;47.808;12.482;2024-03-02T02:04:16;277.27;;;256.85;;
34645;SDS011;20857;47.808;12.482;2024-03-02T02:06:43;218.88;;;202.65;;
34645;SDS011;20857;47.808;12.482;2024-03-02T02:09:09;1563.18;;;808.38;;
34645;SDS011;20857;47.808;12.482;2024-03-02T02:11:35;1561.18;;;806.60;;
34645;SDS011;20857;47.808;12.482;2024-03-02T02:14:00;194.90;;;180.43;;
34645;SDS011;20857;47.808;12.482;2024-03-02T02:16:26;1562.78;;;808.03;;
34645;SDS011;20857;47.808;12.482;2024-03-02T02:18:52;1556.72;;;802.40;;
34645;SDS011;20857;47.808;12.482;2024-03-02T02:21:17;1553.35;;;799.28;;
34645;SDS011;20857;47.808;12.482;2024-03-02T02:23:47;1556.68;;;802.40;;
34645;SDS011;20857;47.808;12.482;2024-03-02T02:26:13;1549.38;;;795.63;;
34645;SDS011;20857;47.808;12.482;2024-03-02T02:28:39;1550.13;;;796.38;;
34645;SDS011;20857;47.808;12.482;2024-03-02T02:31:11;1549.00;;;795.33;;
34645;SDS011;20857;47.808;12.482;2024-03-02T02:33:40;1546.30;;;792.70;;
34645;SDS011;20857;47.808;12.482;2024-03-02T02:36:05;116.60;;;107.82;;
34645;SDS011;20857;47.808;12.482;2024-03-02T02:38:35;1551.78;;;797.75;;
34645;SDS011;20857;47.808;12.482;2024-03-02T02:41:03;1999.90;;;999.90;;
34645;SDS011;20857;47.808;12.482;2024-03-02T02:43:29;1999.90;;;999.90;;
34645;SDS011;20857;47.808;12.482;2024-03-02T02:45:55;1999.90;;;999.90;;
34645;SDS011;20857;47.808;12.482;2024-03-02T02:48:20;1999.90;;;999.90;;
34645;SDS011;20857;47.808;12.482;2024-03-02T02:50:46;1999.90;;;999.90;;
34645;SDS011;20857;47.808;12.482;2024-03-02T02:53:12;1999.90;;;999.90;;
34645;SDS011;20857;47.808;12.482;2024-03-02T02:55:39;1999.90;;;999.90;;
34645;SDS011;20857;47.808;12.482;2024-03-02T02:58:08;1999.90;;;999.90;;
34645;SDS011;20857;47.808;12.482;2024-03-02T03:03:02;1999.90;;;999.90;;
34645;SDS011;20857;47.808;12.482;2024-03-02T03:05:28;1999.90;;;999.90;;
34645;SDS011;20857;47.808;12.482;2024-03-02T03:07:53;1999.90;;;999.90;;
34645;SDS011;20857;47.808;12.482;2024-03-02T03:10:19;1999.90;;;999.90;;
34645;SDS011;20857;47.808;12.482;2024-03-02T03:12:47;1999.90;;;999.90;;
34645;SDS011;20857;47.808;12.482;2024-03-02T03:15:12;1999.90;;;999.90;;
34645;SDS011;20857;47.808;12.482;2024-03-02T03:17:39;1999.90;;;999.90;;
34645;SDS011;20857;47.808;12.482;2024-03-02T03:20:05;1999.90;;;999.90;;
34645;SDS011;20857;47.808;12.482;2024-03-02T03:22:34;1999.90;;;999.90;;
34645;SDS011;20857;47.808;12.482;2024-03-02T03:25:03;1999.90;;;999.90;;
34645;SDS011;20857;47.808;12.482;2024-03-02T03:27:29;1999.90;;;999.90;;
34645;SDS011;20857;47.808;12.482;2024-03-02T03:29:54;1999.90;;;999.90;;
34645;SDS011;20857;47.808;12.482;2024-03-02T03:32:20;1999.90;;;999.90;;
34645;SDS011;20857;47.808;12.482;2024-03-02T03:34:46;1999.90;;;999.90;;
34645;SDS011;20857;47.808;12.482;2024-03-02T03:37:13;1999.90;;;999.90;;
34645;SDS011;20857;47.808;12.482;2024-03-02T03:39:38;1999.90;;;999.90;;
34645;SDS011;20857;47.808;12.482;2024-03-02T03:42:04;1999.90;;;999.90;;
34645;SDS011;20857;47.808;12.482;2024-03-02T03:44:30;1999.90;;;999.90;;
34645;SDS011;20857;47.808;12.482;2024-03-02T03:46:55;1999.90;;;999.90;;
34645;SDS011;20857;47.808;12.482;2024-03-02T03:49:21;1999.90;;;999.90;;
34645;SDS011;20857;47.808;12.482;2024-03-02T03:51:46;1999.90;;;999.90;;
34645;SDS011;20857;47.808;12.482;2024-03-02T03:54:12;1999.90;;;999.90;;
34645;SDS011;20857;47.808;12.482;2024-03-02T03:56:38;1999.90;;;999.90;;
34645;SDS011;20857;47.808;12.482;2024-03-02T03:59:03;1999.90;;;999.90;;
34645;SDS011;20857;47.808;12.482;2024-03-02T04:01:30;1999.90;;;999.90;;
34645;SDS011;20857;47.808;12.482;2024-03-02T04:03:56;1999.90;;;999.90;;
34645;SDS011;20857;47.808;12.482;2024-03-02T04:06:23;1999.90;;;999.90;;
34645;SDS011;20857;47.808;12.482;2024-03-02T04:08:48;1999.90;;;999.90;;
34645;SDS011;20857;47.808;12.482;2024-03-02T04:11:14;1999.90;;;999.90;;
34645;SDS011;20857;47.808;12.482;2024-03-02T04:13:40;1999.90;;;999.90;;
34645;SDS011;20857;47.808;12.482;2024-03-02T04:16:05;1999.90;;;999.90;;
34645;SDS011;20857;47.808;12.482;2024-03-02T04:18:31;1999.90;;;999.90;;
34645;SDS011;20857;47.808;12.482;2024-03-02T04:21:00;1999.90;;;999.90;;
34645;SDS011;20857;47.808;12.482;2024-03-02T04:26:47;1999.90;;;999.90;;
34645;SDS011;20857;47.808;12.482;2024-03-02T04:29:13;1999.90;;;999.90;;
34645;SDS011;20857;47.808;12.482;2024-03-02T04:31:39;1999.90;;;999.90;;
34645;SDS011;20857;47.808;12.482;2024-03-02T04:34:04;1999.90;;;999.90;;
34645;SDS011;20857;47.808;12.482;2024-03-02T04:36:30;1999.90;;;999.90;;
34645;SDS011;20857;47.808;12.482;2024-03-02T04:38:55;1999.90;;;999.90;;
34645;SDS011;20857;47.808;12.482;2024-03-02T04:41:21;1999.90;;;999.90;;
34645;SDS011;20857;47.808;12.482;2024-03-02T04:43:46;1999.90;;;999.90;;
34645;SDS011;20857;47.808;12.482;2024-03-02T04:46:12;1999.90;;;999.90;;
34645;SDS011;20857;47.808;12.482;2024-03-02T04:48:37;1999.90;;;999.90;;
34645;SDS011;20857;47.808;12.482;2024-03-02T04:51:03;1999.90;;;999.90;;
34645;SDS011;20857;47.808;12.482;2024-03-02T04:53:29;1999.90;;;999.90;;
34645;SDS011;20857;47.808;12.482;2024-03-02T04:55:54;1999.90;;;999.90;;
34645;SDS011;20857;47.808;12.482;2024-03-02T04:58:20;1999.90;;;999.90;;
34645;SDS011;20857;47.808;12.482;2024-03-02T05:00:45;1999.90;;;999.90;;
34645;SDS011;20857;47.808;12.482;2024-03-02T05:03:11;1999.90;;;999.90;;
34645;SDS011;20857;47.808;12.482;2024-03-02T05:05:38;1999.90;;;999.90;;
34645;SDS011;20857;47.808;12.482;2024-03-02T05:08:03;1999.90;;;999.90;;
34645;SDS011;20857;47.808;12.482;2024-03-02T05:10:30;1999.90;;;999.90;;
34645;SDS011;20857;47.808;12.482;2024-03-02T05:12:55;1999.90;;;999.90;;
34645;SDS011;20857;47.808;12.482;2024-03-02T05:15:24;1999.90;;;999.90;;
34645;SDS011;20857;47.808;12.482;2024-03-02T05:17:50;1999.90;;;999.90;;
34645;SDS011;20857;47.808;12.482;2024-03-02T05:20:16;1999.90;;;999.90;;
34645;SDS011;20857;47.808;12.482;2024-03-02T05:22:42;1999.90;;;999.90;;
34645;SDS011;20857;47.808;12.482;2024-03-02T05:25:08;1999.90;;;999.90;;
34645;SDS011;20857;47.808;12.482;2024-03-02T05:27:35;1999.90;;;999.90;;
34645;SDS011;20857;47.808;12.482;2024-03-02T05:30:01;1999.90;;;999.90;;
34645;SDS011;20857;47.808;12.482;2024-03-02T05:32:26;1999.90;;;999.90;;
34645;SDS011;20857;47.808;12.482;2024-03-02T05:34:52;1999.90;;;999.90;;
34645;SDS011;20857;47.808;12.482;2024-03-02T05:37:18;1999.90;;;999.90;;
34645;SDS011;20857;47.808;12.482;2024-03-02T05:39:44;1999.90;;;999.90;;
34645;SDS011;20857;47.808;12.482;2024-03-02T05:42:10;1999.90;;;999.90;;
34645;SDS011;20857;47.808;12.482;2024-03-02T05:44:36;1999.90;;;999.90;;
34645;SDS011;20857;47.808;12.482;2024-03-02T05:47:02;1999.90;;;999.90;;
34645;SDS011;20857;47.808;12.482;2024-03-02T05:49:28;1999.90;;;999.90;;
34645;SDS011;20857;47.808;12.482;2024-03-02T05:51:54;1999.90;;;999.90;;
34645;SDS011;20857;47.808;12.482;2024-03-02T05:54:19;1999.90;;;999.90;;
34645;SDS011;20857;47.808;12.482;2024-03-02T05:56:45;1999.90;;;999.90;;
34645;SDS011;20857;47.808;12.482;2024-03-02T05:59:10;1999.90;;;999.90;;
34645;SDS011;20857;47.808;12.482;2024-03-02T06:01:39;1999.90;;;999.90;;
34645;SDS011;20857;47.808;12.482;2024-03-02T06:04:05;1999.90;;;999.90;;
34645;SDS011;20857;47.808;12.482;2024-03-02T06:06:31;1999.90;;;999.90;;
34645;SDS011;20857;47.808;12.482;2024-03-02T06:08:59;1999.90;;;999.90;;
34645;SDS011;20857;47.808;12.482;2024-03-02T06:11:25;1999.90;;;999.90;;
34645;SDS011;20857;47.808;12.482;2024-03-02T06:13:50;1999.90;;;999.90;;
34645;SDS011;20857;47.808;12.482;2024-03-02T06:16:16;1999.90;;;999.90;;
34645;SDS011;20857;47.808;12.482;2024-03-02T06:18:42;1999.90;;;999.90;;
34645;SDS011;20857;47.808;12.482;2024-03-02T06:21:07;1999.90;;;999.90;;
34645;SDS011;20857;47.808;12.482;2024-03-02T06:23:33;1999.90;;;999.90;;
34645;SDS011;20857;47.808;12.482;2024-03-02T06:26:00;1999.90;;;999.90;;
34645;SDS011;20857;47.808;12.482;2024-03-02T06:28:26;1999.90;;;999.90;;
34645;SDS011;20857;47.808;12.482;2024-03-02T06:30:51;1999.90;;;999.90;;
34645;SDS011;20857;47.808;12.482;2024-03-02T06:33:17;1999.90;;;999.90;;
34645;SDS011;20857;47.808;12.482;2024-03-02T06:35:42;1999.90;;;999.90;;
34645;SDS011;20857;47.808;12.482;2024-03-02T06:38:08;1999.90;;;999.90;;
34645;SDS011;20857;47.808;12.482;2024-03-02T06:40:33;1999.90;;;999.90;;
34645;SDS011;20857;47.808;12.482;2024-03-02T06:42:59;1999.90;;;999.90;;
34645;SDS011;20857;47.808;12.482;2024-03-02T06:45:25;1999.90;;;999.90;;
34645;SDS011;20857;47.808;12.482;2024-03-02T06:47:50;1999.90;;;999.90;;
34645;SDS011;20857;47.808;12.482;2024-03-02T06:50:16;1999.90;;;999.90;;
34645;SDS011;20857;47.808;12.482;2024-03-02T06:52:41;1999.90;;;999.90;;
34645;SDS011;20857;47.808;12.482;2024-03-02T06:55:08;1999.90;;;999.90;;
34645;SDS011;20857;47.808;12.482;2024-03-02T06:57:34;1999.90;;;999.90;;
34645;SDS011;20857;47.808;12.482;2024-03-02T06:59:59;1999.90;;;999.90;;
34645;SDS011;20857;47.808;12.482;2024-03-02T07:02:25;1999.90;;;999.90;;
34645;SDS011;20857;47.808;12.482;2024-03-02T07:04:52;1999.90;;;999.90;;
34645;SDS011;20857;47.808;12.482;2024-03-02T07:07:18;1999.90;;;999.90;;
34645;SDS011;20857;47.808;12.482;2024-03-02T07:09:43;1999.90;;;999.90;;
34645;SDS011;20857;47.808;12.482;2024-03-02T07:12:09;1999.90;;;999.90;;
34645;SDS011;20857;47.808;12.482;2024-03-02T07:14:35;1999.90;;;999.90;;
34645;SDS011;20857;47.808;12.482;2024-03-02T07:17:22;1999.90;;;999.90;;
34645;SDS011;20857;47.808;12.482;2024-03-02T07:19:47;1999.90;;;999.90;;
34645;SDS011;20857;47.808;12.482;2024-03-02T07:22:13;1999.90;;;999.90;;
34645;SDS011;20857;47.808;12.482;2024-03-02T07:24:42;1999.90;;;999.90;;
34645;SDS011;20857;47.808;12.482;2024-03-02T07:27:08;1999.90;;;999.90;;
34645;SDS011;20857;47.808;12.482;2024-03-02T07:29:35;1999.90;;;999.90;;
34645;SDS011;20857;47.808;12.482;2024-03-02T07:32:01;1999.90;;;999.90;;
34645;SDS011;20857;47.808;12.482;2024-03-02T07:34:26;1999.90;;;999.90;;
34645;SDS011;20857;47.808;12.482;2024-03-02T07:36:52;1999.90;;;999.90;;
34645;SDS011;20857;47.808;12.482;2024-03-02T07:39:18;1999.90;;;999.90;;
34645;SDS011;20857;47.808;12.482;2024-03-02T07:41:44;1999.90;;;999.90;;
34645;SDS011;20857;47.808;12.482;2024-03-02T07:44:10;1999.90;;;999.90;;
34645;SDS011;20857;47.808;12.482;2024-03-02T07:46:40;1999.90;;;999.90;;
34645;SDS011;20857;47.808;12.482;2024-03-02T07:49:08;1999.90;;;999.90;;
34645;SDS011;20857;47.808;12.482;2024-03-02T07:51:34;1999.90;;;999.90;;
34645;SDS011;20857;47.808;12.482;2024-03-02T07:54:00;1999.90;;;999.90;;
34645;SDS011;20857;47.808;12.482;2024-03-02T07:56:26;1999.90;;;999.90;;
34645;SDS011;20857;47.808;12.482;2024-03-02T07:58:52;1999.90;;;999.90;;
34645;SDS011;20857;47.808;12.482;2024-03-02T08:01:18;1999.90;;;999.90;;
34645;SDS011;20857;47.808;12.482;2024-03-02T08:03:43;1999.90;;;999.90;;
34645;SDS011;20857;47.808;12.482;2024-03-02T08:06:13;1999.90;;;999.90;;
34645;SDS011;20857;47.808;12.482;2024-03-02T08:08:40;1999.90;;;999.90;;
34645;SDS011;20857;47.808;12.482;2024-03-02T08:11:06;1999.90;;;999.90;;
34645;SDS011;20857;47.808;12.482;2024-03-02T08:13:31;1999.90;;;999.90;;
34645;SDS011;20857;47.808;12.482;2024-03-02T08:15:57;1999.90;;;999.90;;
34645;SDS011;20857;47.808;12.482;2024-03-02T08:18:23;1999.90;;;999.90;;
34645;SDS011;20857;47.808;12.482;2024-03-02T08:20:49;1999.90;;;999.90;;
34645;SDS011;20857;47.808;12.482;2024-03-02T08:23:14;1999.90;;;999.90;;
34645;SDS011;20857;47.808;12.482;2024-03-02T08:25:40;1999.90;;;999.90;;
34645;SDS011;20857;47.808;12.482;2024-03-02T08:28:06;1999.90;;;999.90;;
34645;SDS011;20857;47.808;12.482;2024-03-02T08:30:32;1999.90;;;999.90;;
34645;SDS011;20857;47.808;12.482;2024-03-02T08:32:57;1999.90;;;999.90;;
34645;SDS011;20857;47.808;12.482;2024-03-02T08:35:23;1999.90;;;999.90;;
34645;SDS011;20857;47.808;12.482;2024-03-02T08:37:48;1999.90;;;999.90;;
34645;SDS011;20857;47.808;12.482;2024-03-02T08:40:14;1999.90;;;999.90;;
34645;SDS011;20857;47.808;12.482;2024-03-02T08:42:40;1999.90;;;999.90;;
34645;SDS011;20857;47.808;12.482;2024-03-02T08:45:06;1999.90;;;999.90;;
34645;SDS011;20857;47.808;12.482;2024-03-02T08:47:32;1999.90;;;999.90;;
34645;SDS011;20857;47.808;12.482;2024-03-02T08:49:59;1999.90;;;999.90;;
34645;SDS011;20857;47.808;12.482;2024-03-02T08:52:25;1999.90;;;999.90;;
34645;SDS011;20857;47.808;12.482;2024-03-02T08:54:51;1999.90;;;999.90;;
34645;SDS011;20857;47.808;12.482;2024-03-02T08:57:17;1999.90;;;999.90;;
34645;SDS011;20857;47.808;12.482;2024-03-02T08:59:42;1999.90;;;999.90;;
34645;SDS011;20857;47.808;12.482;2024-03-02T09:02:09;1999.90;;;999.90;;
34645;SDS011;20857;47.808;12.482;2024-03-02T09:04:34;1999.90;;;999.90;;
34645;SDS011;20857;47.808;12.482;2024-03-02T09:07:00;1999.90;;;999.90;;
34645;SDS011;20857;47.808;12.482;2024-03-02T09:09:26;1999.90;;;999.90;;
34645;SDS011;20857;47.808;12.482;2024-03-02T09:11:51;1999.90;;;999.90;;
34645;SDS011;20857;47.808;12.482;2024-03-02T09:14:19;1999.90;;;999.90;;
34645;SDS011;20857;47.808;12.482;2024-03-02T09:16:45;1999.90;;;999.90;;
34645;SDS011;20857;47.808;12.482;2024-03-02T09:19:11;1999.90;;;999.90;;
34645;SDS011;20857;47.808;12.482;2024-03-02T09:21:37;1999.90;;;999.90;;
34645;SDS011;20857;47.808;12.482;2024-03-02T09:24:03;1999.90;;;999.90;;
34645;SDS011;20857;47.808;12.482;2024-03-02T09:26:29;1999.90;;;999.90;;
34645;SDS011;20857;47.808;12.482;2024-03-02T09:28:54;1999.90;;;999.90;;
34645;SDS011;20857;47.808;12.482;2024-03-02T09:31:20;1999.90;;;999.90;;
34645;SDS011;20857;47.808;12.482;2024-03-02T09:33:45;1999.90;;;999.90;;
34645;SDS011;20857;47.808;12.482;2024-03-02T09:36:18;1999.90;;;999.90;;
34645;SDS011;20857;47.808;12.482;2024-03-02T09:38:44;1999.90;;;999.90;;
34645;SDS011;20857;47.808;12.482;2024-03-02T09:41:10;1999.90;;;999.90;;
34645;SDS011;20857;47.808;12.482;2024-03-02T09:43:36;1999.90;;;999.90;;
34645;SDS011;20857;47.808;12.482;2024-03-02T09:46:02;1999.90;;;999.90;;
34645;SDS011;20857;47.808;12.482;2024-03-02T09:48:28;1999.90;;;999.90;;
34645;SDS011;20857;47.808;12.482;2024-03-02T09:50:54;1999.90;;;999.90;;
34645;SDS011;20857;47.808;12.482;2024-03-02T09:53:20;1999.90;;;999.90;;
34645;SDS011;20857;47.808;12.482;2024-03-02T09:59:09;1999.90;;;999.90;;
34645;SDS011;20857;47.808;12.482;2024-03-02T10:01:35;1999.90;;;999.90;;
34645;SDS011;20857;47.808;12.482;2024-03-02T10:04:00;1999.90;;;999.90;;
34645;SDS011;20857;47.808;12.482;2024-03-02T10:06:27;1999.90;;;999.90;;
34645;SDS011;20857;47.808;12.482;2024-03-02T10:08:54;1999.90;;;999.90;;
34645;SDS011;20857;47.808;12.482;2024-03-02T10:11:33;1999.90;;;999.90;;
34645;SDS011;20857;47.808;12.482;2024-03-02T10:14:08;1999.90;;;999.90;;
34645;SDS011;20857;47.808;12.482;2024-03-02T10:16:42;1999.90;;;999.90;;
34645;SDS011;20857;47.808;12.482;2024-03-02T10:19:16;1999.90;;;999.90;;
34645;SDS011;20857;47.808;12.482;2024-03-02T10:21:43;1999.90;;;999.90;;
34645;SDS011;20857;47.808;12.482;2024-03-02T10:24:19;1999.90;;;999.90;;
34645;SDS011;20857;47.808;12.482;2024-03-02T10:26:47;1999.90;;;999.90;;
34645;SDS011;20857;47.808;12.482;2024-03-02T10:29:13;1999.90;;;999.90;;
34645;SDS011;20857;47.808;12.482;2024-03-02T10:31:39;1999.90;;;999.90;;
34645;SDS011;20857;47.808;12.482;2024-03-02T10:34:07;1999.90;;;999.90;;
34645;SDS011;20857;47.808;12.482;2024-03-02T10:36:33;1999.90;;;999.90;;
34645;SDS011;20857;47.808;12.482;2024-03-02T10:39:05;1999.90;;;999.90;;
34645;SDS011;20857;47.808;12.482;2024-03-02T10:41:33;1999.90;;;999.90;;
34645;SDS011;20857;47.808;12.482;2024-03-02T10:44:00;1999.90;;;999.90;;
34645;SDS011;20857;47.808;12.482;2024-03-02T10:46:28;1999.90;;;999.90;;
34645;SDS011;20857;47.808;12.482;2024-03-02T10:48:55;1999.90;;;999.90;;
34645;SDS011;20857;47.808;12.482;2024-03-02T10:51:25;1999.90;;;999.90;;
34645;SDS011;20857;47.808;12.482;2024-03-02T10:53:53;1999.90;;;999.90;;
34645;SDS011;20857;47.808;12.482;2024-03-02T10:59:01;1999.90;;;999.90;;
34645;SDS011;20857;47.808;12.482;2024-03-02T11:01:29;1999.90;;;999.90;;
34645;SDS011;20857;47.808;12.482;2024-03-02T11:03:56;1999.90;;;999.90;;
34645;SDS011;20857;47.808;12.482;2024-03-02T11:06:23;1999.90;;;999.90;;
34645;SDS011;20857;47.808;12.482;2024-03-02T11:08:52;1999.90;;;999.90;;
34645;SDS011;20857;47.808;12.482;2024-03-02T11:11:26;1999.90;;;999.90;;
34645;SDS011;20857;47.808;12.482;2024-03-02T11:19:04;1999.90;;;999.90;;
34645;SDS011;20857;47.808;12.482;2024-03-02T11:21:34;1999.90;;;999.90;;
34645;SDS011;20857;47.808;12.482;2024-03-02T11:24:19;1999.90;;;999.90;;
34645;SDS011;20857;47.808;12.482;2024-03-02T11:26:46;1999.90;;;999.90;;
34645;SDS011;20857;47.808;12.482;2024-03-02T11:34:46;1999.90;;;999.90;;
34645;SDS011;20857;47.808;12.482;2024-03-02T11:37:15;1999.90;;;999.90;;
34645;SDS011;20857;47.808;12.482;2024-03-02T11:39:42;1999.90;;;999.90;;
34645;SDS011;20857;47.808;12.482;2024-03-02T11:42:14;1999.90;;;999.90;;
34645;SDS011;20857;47.808;12.482;2024-03-02T11:44:42;1999.90;;;999.90;;
34645;SDS011;20857;47.808;12.482;2024-03-02T11:47:10;1999.90;;;999.90;;
34645;SDS011;20857;47.808;12.482;2024-03-02T11:49:46;1999.90;;;999.90;;
34645;SDS011;20857;47.808;12.482;2024-03-02T11:52:16;1999.90;;;999.90;;
34645;SDS011;20857;47.808;12.482;2024-03-02T11:54:43;1999.90;;;999.90;;
34645;SDS011;20857;47.808;12.482;2024-03-02T11:57:14;1999.90;;;999.90;;
34645;SDS011;20857;47.808;12.482;2024-03-02T11:59:41;1999.90;;;999.90;;
34645;SDS011;20857;47.808;12.482;2024-03-02T12:02:12;1999.90;;;999.90;;
34645;SDS011;20857;47.808;12.482;2024-03-02T12:04:50;1999.90;;;999.90;;
34645;SDS011;20857;47.808;12.482;2024-03-02T12:07:19;1999.90;;;999.90;;
34645;SDS011;20857;47.808;12.482;2024-03-02T12:09:49;1999.90;;;999.90;;
34645;SDS011;20857;47.808;12.482;2024-03-02T12:12:25;1999.90;;;999.90;;
34645;SDS011;20857;47.808;12.482;2024-03-02T12:14:52;1999.90;;;999.90;;
34645;SDS011;20857;47.808;12.482;2024-03-02T12:17:20;1999.90;;;999.90;;
34645;SDS011;20857;47.808;12.482;2024-03-02T12:19:46;1999.90;;;999.90;;
34645;SDS011;20857;47.808;12.482;2024-03-02T12:22:12;1999.90;;;999.90;;
34645;SDS011;20857;47.808;12.482;2024-03-02T12:24:38;1999.90;;;999.90;;
34645;SDS011;20857;47.808;12.482;2024-03-02T12:27:04;1999.90;;;999.90;;
34645;SDS011;20857;47.808;12.482;2024-03-02T12:29:30;1999.90;;;999.90;;
34645;SDS011;20857;47.808;12.482;2024-03-02T12:31:56;1999.90;;;999.90;;
34645;SDS011;20857;47.808;12.482;2024-03-02T12:34:22;1999.90;;;999.90;;
34645;SDS011;20857;47.808;12.482;2024-03-02T12:36:48;1999.90;;;999.90;;
34645;SDS011;20857;47.808;12.482;2024-03-02T12:39:17;1999.90;;;999.90;;
34645;SDS011;20857;47.808;12.482;2024-03-02T12:41:44;1999.90;;;999.90;;
34645;SDS011;20857;47.808;12.482;2024-03-02T12:44:10;1999.90;;;999.90;;
34645;SDS011;20857;47.808;12.482;2024-03-02T12:46:36;1999.90;;;999.90;;
34645;SDS011;20857;47.808;12.482;2024-03-02T12:49:05;1999.90;;;999.90;;
34645;SDS011;20857;47.808;12.482;2024-03-02T12:51:36;1999.90;;;999.90;;
34645;SDS011;20857;47.808;12.482;2024-03-02T12:59:59;1999.90;;;999.90;;
34645;SDS011;20857;47.808;12.482;2024-03-02T13:02:34;1999.90;;;999.90;;
34645;SDS011;20857;47.808;12.482;2024-03-02T13:05:00;1999.90;;;999.90;;
34645;SDS011;20857;47.808;12.482;2024-03-02T13:07:26;1999.90;;;999.90;;
34645;SDS011;20857;47.808;12.482;2024-03-02T13:09:52;1999.90;;;999.90;;
34645;SDS011;20857;47.808;12.482;2024-03-02T13:12:22;1999.90;;;999.90;;
34645;SDS011;20857;47.808;12.482;2024-03-02T13:14:49;1999.90;;;999.90;;
34645;SDS011;20857;47.808;12.482;2024-03-02T13:17:17;1999.90;;;999.90;;
34645;SDS011;20857;47.808;12.482;2024-03-02T13:19:56;1999.90;;;999.90;;
34645;SDS011;20857;47.808;12.482;2024-03-02T13:22:23;1999.90;;;999.90;;
34645;SDS011;20857;47.808;12.482;2024-03-02T13:24:50;1999.90;;;999.90;;
34645;SDS011;20857;47.808;12.482;2024-03-02T13:27:16;1999.90;;;999.90;;
34645;SDS011;20857;47.808;12.482;2024-03-02T13:29:44;1999.90;;;999.90;;
34645;SDS011;20857;47.808;12.482;2024-03-02T13:32:11;1999.90;;;999.90;;
34645;SDS011;20857;47.808;12.482;2024-03-02T13:34:37;1999.90;;;999.90;;
34645;SDS011;20857;47.808;12.482;2024-03-02T13:37:02;1999.90;;;999.90;;
34645;SDS011;20857;47.808;12.482;2024-03-02T13:39:30;1999.90;;;999.90;;
34645;SDS011;20857;47.808;12.482;2024-03-02T13:41:57;1999.90;;;999.90;;
34645;SDS011;20857;47.808;12.482;2024-03-02T13:44:29;1999.90;;;999.90;;
34645;SDS011;20857;47.808;12.482;2024-03-02T13:46:55;1999.90;;;999.90;;
34645;SDS011;20857;47.808;12.482;2024-03-02T13:49:22;1999.90;;;999.90;;
34645;SDS011;20857;47.808;12.482;2024-03-02T13:51:48;1999.90;;;999.90;;
34645;SDS011;20857;47.808;12.482;2024-03-02T13:54:14;1999.90;;;999.90;;
34645;SDS011;20857;47.808;12.482;2024-03-02T13:56:39;1999.90;;;999.90;;
34645;SDS011;20857;47.808;12.482;2024-03-02T13:59:06;1999.90;;;999.90;;
34645;SDS011;20857;47.808;12.482;2024-03-02T14:01:32;1999.90;;;999.90;;
34645;SDS011;20857;47.808;12.482;2024-03-02T14:04:01;1999.90;;;999.90;;
34645;SDS011;20857;47.808;12.482;2024-03-02T14:06:26;1999.90;;;999.90;;